sensor_id;sensor_type;location;lat;lon;timestamp;P1;durP1;ratioP1;P2;durP2;ratioP2
57341;SDS011;43175;51.002;18.316;2022-07-29T00:02:01;11.60;;;4.00;;
57341;SDS011;43175;51.002;18.316;2022-07-29T00:04:46;14.10;;;4.10;;
57341;SDS011;43175;51.002;18.316;2022-07-29T00:07:30;11.70;;;4.10;;
57341;SDS011;43175;51.002;18.316;2022-07-29T00:10:15;13.00;;;4.20;;
57341;SDS011;43175;51.002;18.316;2022-07-29T00:12:59;12.10;;;4.20;;
57341;SDS011;43175;51.002;18.316;2022-07-29T00:15:43;15.80;;;4.40;;
57341;SDS011;43175;51.002;18.316;2022-07-29T00:18:27;12.70;;;4.10;;
57341;SDS011;43175;51.002;18.316;2022-07-29T00:21:11;12.70;;;3.80;;
57341;SDS011;43175;51.002;18.316;2022-07-29T00:23:55;10.40;;;4.10;;
57341;SDS011;43175;51.002;18.316;2022-07-29T00:26:39;12.60;;;4.10;;
57341;SDS011;43175;51.002;18.316;2022-07-29T00:29:23;10.70;;;4.10;;
57341;SDS011;43175;51.002;18.316;2022-07-29T00:32:08;11.20;;;4.70;;
57341;SDS011;43175;51.002;18.316;2022-07-29T00:34:52;14.10;;;4.10;;
57341;SDS011;43175;51.002;18.316;2022-07-29T00:37:55;11.60;;;4.20;;
57341;SDS011;43175;51.002;18.316;2022-07-29T00:40:39;11.90;;;4.00;;
57341;SDS011;43175;51.002;18.316;2022-07-29T00:43:24;11.30;;;4.30;;
57341;SDS011;43175;51.002;18.316;2022-07-29T00:46:09;14.00;;;4.40;;
57341;SDS011;43175;51.002;18.316;2022-07-29T00:48:53;10.50;;;4.00;;
57341;SDS011;43175;51.002;18.316;2022-07-29T00:51:37;13.20;;;4.60;;
57341;SDS011;43175;51.002;18.316;2022-07-29T00:54:22;11.20;;;4.50;;
57341;SDS011;43175;51.002;18.316;2022-07-29T00:57:07;12.10;;;4.30;;
57341;SDS011;43175;51.002;18.316;2022-07-29T00:59:54;14.10;;;4.50;;
57341;SDS011;43175;51.002;18.316;2022-07-29T01:02:38;12.20;;;4.40;;
57341;SDS011;43175;51.002;18.316;2022-07-29T01:05:24;11.00;;;4.40;;
57341;SDS011;43175;51.002;18.316;2022-07-29T01:08:10;12.80;;;4.40;;
57341;SDS011;43175;51.002;18.316;2022-07-29T01:10:55;12.80;;;4.40;;
57341;SDS011;43175;51.002;18.316;2022-07-29T01:13:40;12.40;;;4.70;;
57341;SDS011;43175;51.002;18.316;2022-07-29T01:16:25;12.10;;;4.40;;
57341;SDS011;43175;51.002;18.316;2022-07-29T01:19:25;14.20;;;4.50;;
57341;SDS011;43175;51.002;18.316;2022-07-29T01:38:01;13.80;;;4.80;;
57341;SDS011;43175;51.002;18.316;2022-07-29T01:40:54;13.50;;;4.30;;
57341;SDS011;43175;51.002;18.316;2022-07-29T01:46:58;13.40;;;4.70;;
57341;SDS011;43175;51.002;18.316;2022-07-29T01:49:47;14.60;;;5.00;;
57341;SDS011;43175;51.002;18.316;2022-07-29T01:52:36;13.70;;;4.50;;
57341;SDS011;43175;51.002;18.316;2022-07-29T01:55:25;13.80;;;4.80;;
57341;SDS011;43175;51.002;18.316;2022-07-29T01:58:12;11.00;;;4.30;;
57341;SDS011;43175;51.002;18.316;2022-07-29T02:00:57;10.80;;;4.40;;
57341;SDS011;43175;51.002;18.316;2022-07-29T02:03:43;12.70;;;4.60;;
57341;SDS011;43175;51.002;18.316;2022-07-29T02:06:28;12.60;;;4.60;;
57341;SDS011;43175;51.002;18.316;2022-07-29T02:09:13;12.50;;;4.30;;
57341;SDS011;43175;51.002;18.316;2022-07-29T02:11:58;10.70;;;4.50;;
57341;SDS011;43175;51.002;18.316;2022-07-29T02:14:44;12.70;;;4.50;;
57341;SDS011;43175;51.002;18.316;2022-07-29T02:17:33;12.30;;;4.90;;
57341;SDS011;43175;51.002;18.316;2022-07-29T02:20:19;13.00;;;4.50;;
57341;SDS011;43175;51.002;18.316;2022-07-29T02:23:03;14.00;;;4.50;;
57341;SDS011;43175;51.002;18.316;2022-07-29T02:25:49;13.60;;;4.30;;
57341;SDS011;43175;51.002;18.316;2022-07-29T02:28:34;11.70;;;4.70;;
57341;SDS011;43175;51.002;18.316;2022-07-29T02:31:20;12.40;;;4.30;;
57341;SDS011;43175;51.002;18.316;2022-07-29T02:34:08;13.00;;;4.50;;
57341;SDS011;43175;51.002;18.316;2022-07-29T02:36:52;14.30;;;5.00;;
57341;SDS011;43175;51.002;18.316;2022-07-29T02:39:39;12.70;;;4.70;;
57341;SDS011;43175;51.002;18.316;2022-07-29T02:42:26;12.10;;;4.70;;
57341;SDS011;43175;51.002;18.316;2022-07-29T02:45:11;13.00;;;4.40;;
57341;SDS011;43175;51.002;18.316;2022-07-29T02:47:55;12.70;;;4.90;;
57341;SDS011;43175;51.002;18.316;2022-07-29T02:50:49;12.90;;;4.70;;
57341;SDS011;43175;51.002;18.316;2022-07-29T02:53:34;13.30;;;4.50;;
57341;SDS011;43175;51.002;18.316;2022-07-29T02:56:22;16.00;;;4.90;;
57341;SDS011;43175;51.002;18.316;2022-07-29T02:59:09;12.20;;;4.80;;
57341;SDS011;43175;51.002;18.316;2022-07-29T03:01:54;13.20;;;5.00;;
57341;SDS011;43175;51.002;18.316;2022-07-29T03:04:39;13.00;;;5.10;;
57341;SDS011;43175;51.002;18.316;2022-07-29T03:07:24;11.90;;;4.60;;
57341;SDS011;43175;51.002;18.316;2022-07-29T03:10:08;12.60;;;5.00;;
57341;SDS011;43175;51.002;18.316;2022-07-29T03:12:54;12.80;;;4.80;;
57341;SDS011;43175;51.002;18.316;2022-07-29T03:15:39;15.20;;;4.60;;
57341;SDS011;43175;51.002;18.316;2022-07-29T03:18:23;16.80;;;4.50;;
57341;SDS011;43175;51.002;18.316;2022-07-29T03:21:08;11.70;;;5.00;;
57341;SDS011;43175;51.002;18.316;2022-07-29T03:23:52;10.90;;;4.70;;
57341;SDS011;43175;51.002;18.316;2022-07-29T03:26:36;11.10;;;4.60;;
57341;SDS011;43175;51.002;18.316;2022-07-29T03:29:20;11.80;;;4.90;;
57341;SDS011;43175;51.002;18.316;2022-07-29T03:32:05;12.50;;;4.90;;
57341;SDS011;43175;51.002;18.316;2022-07-29T03:34:49;11.70;;;4.80;;
57341;SDS011;43175;51.002;18.316;2022-07-29T03:37:33;13.50;;;4.80;;
57341;SDS011;43175;51.002;18.316;2022-07-29T03:40:22;15.20;;;4.60;;
57341;SDS011;43175;51.002;18.316;2022-07-29T03:43:10;12.00;;;4.70;;
57341;SDS011;43175;51.002;18.316;2022-07-29T03:45:55;11.40;;;4.80;;
57341;SDS011;43175;51.002;18.316;2022-07-29T03:48:41;13.00;;;4.80;;
57341;SDS011;43175;51.002;18.316;2022-07-29T03:51:26;13.40;;;5.00;;
57341;SDS011;43175;51.002;18.316;2022-07-29T03:54:11;13.60;;;4.80;;
57341;SDS011;43175;51.002;18.316;2022-07-29T03:56:55;12.30;;;4.60;;
57341;SDS011;43175;51.002;18.316;2022-07-29T03:59:41;16.20;;;5.10;;
57341;SDS011;43175;51.002;18.316;2022-07-29T04:02:26;13.50;;;5.20;;
57341;SDS011;43175;51.002;18.316;2022-07-29T04:05:11;12.10;;;5.00;;
57341;SDS011;43175;51.002;18.316;2022-07-29T04:07:56;14.40;;;5.40;;
57341;SDS011;43175;51.002;18.316;2022-07-29T04:10:40;14.40;;;5.00;;
57341;SDS011;43175;51.002;18.316;2022-07-29T04:13:24;16.80;;;5.30;;
57341;SDS011;43175;51.002;18.316;2022-07-29T04:16:08;14.10;;;5.10;;
57341;SDS011;43175;51.002;18.316;2022-07-29T04:18:52;13.20;;;5.20;;
57341;SDS011;43175;51.002;18.316;2022-07-29T04:21:37;12.00;;;4.70;;
57341;SDS011;43175;51.002;18.316;2022-07-29T04:24:25;13.10;;;4.90;;
57341;SDS011;43175;51.002;18.316;2022-07-29T04:27:09;16.90;;;5.90;;
57341;SDS011;43175;51.002;18.316;2022-07-29T04:29:53;14.40;;;4.70;;
57341;SDS011;43175;51.002;18.316;2022-07-29T04:32:37;13.10;;;4.50;;
57341;SDS011;43175;51.002;18.316;2022-07-29T04:35:22;11.50;;;4.40;;
57341;SDS011;43175;51.002;18.316;2022-07-29T04:38:06;12.60;;;4.70;;
57341;SDS011;43175;51.002;18.316;2022-07-29T04:40:51;13.60;;;5.00;;
57341;SDS011;43175;51.002;18.316;2022-07-29T04:43:35;12.80;;;4.80;;
57341;SDS011;43175;51.002;18.316;2022-07-29T04:46:19;14.10;;;4.60;;
57341;SDS011;43175;51.002;18.316;2022-07-29T04:49:03;11.50;;;4.50;;
57341;SDS011;43175;51.002;18.316;2022-07-29T04:51:48;10.80;;;4.70;;
57341;SDS011;43175;51.002;18.316;2022-07-29T04:54:32;12.30;;;4.60;;
57341;SDS011;43175;51.002;18.316;2022-07-29T04:57:17;12.90;;;4.70;;
57341;SDS011;43175;51.002;18.316;2022-07-29T05:00:01;10.70;;;4.30;;
57341;SDS011;43175;51.002;18.316;2022-07-29T05:02:45;12.00;;;4.60;;
57341;SDS011;43175;51.002;18.316;2022-07-29T05:05:29;9.90;;;4.10;;
57341;SDS011;43175;51.002;18.316;2022-07-29T05:08:13;12.00;;;4.40;;
57341;SDS011;43175;51.002;18.316;2022-07-29T05:10:57;12.30;;;4.20;;
57341;SDS011;43175;51.002;18.316;2022-07-29T05:13:42;11.00;;;3.90;;
57341;SDS011;43175;51.002;18.316;2022-07-29T05:16:26;10.00;;;3.80;;
57341;SDS011;43175;51.002;18.316;2022-07-29T05:19:11;15.40;;;3.90;;
57341;SDS011;43175;51.002;18.316;2022-07-29T05:21:55;10.70;;;4.30;;
57341;SDS011;43175;51.002;18.316;2022-07-29T05:24:39;11.10;;;4.20;;
57341;SDS011;43175;51.002;18.316;2022-07-29T05:27:24;13.20;;;5.40;;
57341;SDS011;43175;51.002;18.316;2022-07-29T05:30:08;16.40;;;6.20;;
57341;SDS011;43175;51.002;18.316;2022-07-29T05:32:53;13.90;;;6.00;;
57341;SDS011;43175;51.002;18.316;2022-07-29T05:35:37;17.00;;;6.90;;
57341;SDS011;43175;51.002;18.316;2022-07-29T05:38:21;17.10;;;6.40;;
57341;SDS011;43175;51.002;18.316;2022-07-29T05:41:05;16.70;;;5.70;;
57341;SDS011;43175;51.002;18.316;2022-07-29T05:43:50;13.60;;;4.50;;
57341;SDS011;43175;51.002;18.316;2022-07-29T05:46:34;11.50;;;4.10;;
57341;SDS011;43175;51.002;18.316;2022-07-29T05:49:18;10.30;;;3.70;;
57341;SDS011;43175;51.002;18.316;2022-07-29T05:52:02;10.40;;;3.50;;
57341;SDS011;43175;51.002;18.316;2022-07-29T05:54:47;9.90;;;3.00;;
57341;SDS011;43175;51.002;18.316;2022-07-29T05:57:31;10.50;;;2.80;;
57341;SDS011;43175;51.002;18.316;2022-07-29T06:00:16;9.50;;;2.90;;
57341;SDS011;43175;51.002;18.316;2022-07-29T06:03:00;12.80;;;3.10;;
57341;SDS011;43175;51.002;18.316;2022-07-29T06:05:45;9.70;;;2.80;;
57341;SDS011;43175;51.002;18.316;2022-07-29T06:08:29;9.00;;;2.90;;
57341;SDS011;43175;51.002;18.316;2022-07-29T06:11:13;8.60;;;2.50;;
57341;SDS011;43175;51.002;18.316;2022-07-29T06:13:57;9.90;;;2.70;;
57341;SDS011;43175;51.002;18.316;2022-07-29T06:16:41;10.00;;;2.80;;
57341;SDS011;43175;51.002;18.316;2022-07-29T06:19:26;7.30;;;2.50;;
57341;SDS011;43175;51.002;18.316;2022-07-29T06:22:10;10.10;;;2.50;;
57341;SDS011;43175;51.002;18.316;2022-07-29T06:24:54;7.60;;;2.40;;
57341;SDS011;43175;51.002;18.316;2022-07-29T06:27:38;8.70;;;2.60;;
57341;SDS011;43175;51.002;18.316;2022-07-29T06:30:22;7.90;;;2.30;;
57341;SDS011;43175;51.002;18.316;2022-07-29T06:33:06;7.20;;;2.20;;
57341;SDS011;43175;51.002;18.316;2022-07-29T06:35:50;9.70;;;2.40;;
57341;SDS011;43175;51.002;18.316;2022-07-29T06:38:34;8.20;;;2.30;;
57341;SDS011;43175;51.002;18.316;2022-07-29T06:41:18;8.60;;;2.40;;
57341;SDS011;43175;51.002;18.316;2022-07-29T06:44:03;7.80;;;2.30;;
57341;SDS011;43175;51.002;18.316;2022-07-29T06:46:48;7.10;;;2.20;;
57341;SDS011;43175;51.002;18.316;2022-07-29T06:49:35;7.00;;;2.20;;
57341;SDS011;43175;51.002;18.316;2022-07-29T06:52:19;14.30;;;2.60;;
57341;SDS011;43175;51.002;18.316;2022-07-29T06:55:04;9.60;;;2.30;;
57341;SDS011;43175;51.002;18.316;2022-07-29T06:57:48;8.30;;;2.70;;
57341;SDS011;43175;51.002;18.316;2022-07-29T07:00:32;8.30;;;2.40;;
57341;SDS011;43175;51.002;18.316;2022-07-29T07:03:17;12.40;;;2.50;;
57341;SDS011;43175;51.002;18.316;2022-07-29T07:06:01;9.60;;;2.50;;
57341;SDS011;43175;51.002;18.316;2022-07-29T07:08:46;8.20;;;2.30;;
57341;SDS011;43175;51.002;18.316;2022-07-29T07:11:30;8.40;;;2.20;;
57341;SDS011;43175;51.002;18.316;2022-07-29T07:14:14;9.10;;;2.30;;
57341;SDS011;43175;51.002;18.316;2022-07-29T07:16:58;8.10;;;2.40;;
57341;SDS011;43175;51.002;18.316;2022-07-29T07:19:44;13.00;;;2.90;;
57341;SDS011;43175;51.002;18.316;2022-07-29T07:22:29;9.10;;;2.40;;
57341;SDS011;43175;51.002;18.316;2022-07-29T07:25:13;9.40;;;2.40;;
57341;SDS011;43175;51.002;18.316;2022-07-29T07:27:57;8.10;;;2.30;;
57341;SDS011;43175;51.002;18.316;2022-07-29T07:30:41;8.60;;;2.30;;
57341;SDS011;43175;51.002;18.316;2022-07-29T07:33:25;8.70;;;2.60;;
57341;SDS011;43175;51.002;18.316;2022-07-29T07:36:09;8.60;;;2.30;;
57341;SDS011;43175;51.002;18.316;2022-07-29T07:38:53;9.10;;;2.40;;
57341;SDS011;43175;51.002;18.316;2022-07-29T07:41:37;8.90;;;2.40;;
57341;SDS011;43175;51.002;18.316;2022-07-29T07:44:21;9.00;;;2.30;;
57341;SDS011;43175;51.002;18.316;2022-07-29T07:47:05;7.70;;;2.10;;
57341;SDS011;43175;51.002;18.316;2022-07-29T07:49:50;9.10;;;2.50;;
57341;SDS011;43175;51.002;18.316;2022-07-29T07:52:34;9.40;;;2.20;;
57341;SDS011;43175;51.002;18.316;2022-07-29T07:55:21;9.30;;;2.40;;
57341;SDS011;43175;51.002;18.316;2022-07-29T07:58:05;10.10;;;2.90;;
57341;SDS011;43175;51.002;18.316;2022-07-29T08:00:49;9.00;;;2.40;;
57341;SDS011;43175;51.002;18.316;2022-07-29T08:03:33;9.70;;;2.30;;
57341;SDS011;43175;51.002;18.316;2022-07-29T08:06:18;8.00;;;2.40;;
57341;SDS011;43175;51.002;18.316;2022-07-29T08:09:02;7.90;;;2.30;;
57341;SDS011;43175;51.002;18.316;2022-07-29T08:11:47;11.00;;;2.40;;
57341;SDS011;43175;51.002;18.316;2022-07-29T08:14:31;9.20;;;2.50;;
57341;SDS011;43175;51.002;18.316;2022-07-29T08:17:16;9.80;;;2.40;;
57341;SDS011;43175;51.002;18.316;2022-07-29T08:20:00;7.50;;;2.30;;
57341;SDS011;43175;51.002;18.316;2022-07-29T08:22:45;10.10;;;2.50;;
57341;SDS011;43175;51.002;18.316;2022-07-29T08:25:29;9.70;;;2.70;;
57341;SDS011;43175;51.002;18.316;2022-07-29T08:28:13;8.30;;;2.30;;
57341;SDS011;43175;51.002;18.316;2022-07-29T08:30:58;10.40;;;2.40;;
57341;SDS011;43175;51.002;18.316;2022-07-29T08:33:42;9.90;;;2.60;;
57341;SDS011;43175;51.002;18.316;2022-07-29T08:36:27;9.40;;;2.50;;
57341;SDS011;43175;51.002;18.316;2022-07-29T08:39:11;9.10;;;2.70;;
57341;SDS011;43175;51.002;18.316;2022-07-29T08:41:55;9.70;;;2.60;;
57341;SDS011;43175;51.002;18.316;2022-07-29T08:44:39;10.00;;;2.50;;
57341;SDS011;43175;51.002;18.316;2022-07-29T08:47:23;8.70;;;2.50;;
57341;SDS011;43175;51.002;18.316;2022-07-29T08:50:10;11.40;;;2.60;;
57341;SDS011;43175;51.002;18.316;2022-07-29T08:52:54;11.90;;;2.60;;
57341;SDS011;43175;51.002;18.316;2022-07-29T08:55:45;8.40;;;2.50;;
57341;SDS011;43175;51.002;18.316;2022-07-29T08:58:31;8.20;;;2.40;;
57341;SDS011;43175;51.002;18.316;2022-07-29T09:01:17;11.80;;;2.50;;
57341;SDS011;43175;51.002;18.316;2022-07-29T09:04:05;8.50;;;2.30;;
57341;SDS011;43175;51.002;18.316;2022-07-29T09:06:54;10.40;;;2.50;;
57341;SDS011;43175;51.002;18.316;2022-07-29T09:09:41;8.10;;;2.60;;
57341;SDS011;43175;51.002;18.316;2022-07-29T09:12:26;10.40;;;2.60;;
57341;SDS011;43175;51.002;18.316;2022-07-29T09:15:10;10.20;;;2.40;;
57341;SDS011;43175;51.002;18.316;2022-07-29T09:17:54;10.20;;;2.40;;
57341;SDS011;43175;51.002;18.316;2022-07-29T09:20:40;9.10;;;2.40;;
57341;SDS011;43175;51.002;18.316;2022-07-29T09:26:55;10.60;;;2.60;;
57341;SDS011;43175;51.002;18.316;2022-07-29T09:29:39;10.20;;;2.40;;
57341;SDS011;43175;51.002;18.316;2022-07-29T09:32:23;10.30;;;2.70;;
57341;SDS011;43175;51.002;18.316;2022-07-29T09:35:18;8.20;;;2.30;;
57341;SDS011;43175;51.002;18.316;2022-07-29T09:38:10;9.80;;;2.70;;
57341;SDS011;43175;51.002;18.316;2022-07-29T09:40:56;8.00;;;2.60;;
57341;SDS011;43175;51.002;18.316;2022-07-29T09:43:41;10.60;;;2.80;;
57341;SDS011;43175;51.002;18.316;2022-07-29T09:46:40;7.60;;;2.50;;
57341;SDS011;43175;51.002;18.316;2022-07-29T09:49:55;8.00;;;2.60;;
57341;SDS011;43175;51.002;18.316;2022-07-29T09:52:50;8.90;;;2.50;;
57341;SDS011;43175;51.002;18.316;2022-07-29T09:55:50;9.00;;;2.50;;
57341;SDS011;43175;51.002;18.316;2022-07-29T09:58:35;10.10;;;2.90;;
57341;SDS011;43175;51.002;18.316;2022-07-29T10:01:27;11.40;;;2.80;;
57341;SDS011;43175;51.002;18.316;2022-07-29T10:04:12;8.70;;;2.80;;
57341;SDS011;43175;51.002;18.316;2022-07-29T10:07:00;9.30;;;2.70;;
57341;SDS011;43175;51.002;18.316;2022-07-29T10:09:49;8.50;;;2.80;;
57341;SDS011;43175;51.002;18.316;2022-07-29T10:12:48;8.20;;;2.70;;
57341;SDS011;43175;51.002;18.316;2022-07-29T10:15:34;11.30;;;3.00;;
57341;SDS011;43175;51.002;18.316;2022-07-29T10:18:22;10.50;;;2.80;;
57341;SDS011;43175;51.002;18.316;2022-07-29T10:21:06;8.60;;;2.80;;
57341;SDS011;43175;51.002;18.316;2022-07-29T10:23:52;9.10;;;2.90;;
57341;SDS011;43175;51.002;18.316;2022-07-29T10:26:36;15.10;;;3.00;;
57341;SDS011;43175;51.002;18.316;2022-07-29T10:29:24;10.70;;;3.30;;
57341;SDS011;43175;51.002;18.316;2022-07-29T10:32:11;9.40;;;2.80;;
57341;SDS011;43175;51.002;18.316;2022-07-29T10:44:16;9.30;;;3.00;;
57341;SDS011;43175;51.002;18.316;2022-07-29T10:47:02;9.50;;;2.80;;
57341;SDS011;43175;51.002;18.316;2022-07-29T10:49:59;7.80;;;2.80;;
57341;SDS011;43175;51.002;18.316;2022-07-29T11:01:03;10.00;;;2.60;;
57341;SDS011;43175;51.002;18.316;2022-07-29T11:04:13;10.80;;;3.10;;
57341;SDS011;43175;51.002;18.316;2022-07-29T11:12:58;11.90;;;2.70;;
57341;SDS011;43175;51.002;18.316;2022-07-29T11:15:52;10.10;;;3.00;;
57341;SDS011;43175;51.002;18.316;2022-07-29T11:19:18;9.40;;;2.90;;
57341;SDS011;43175;51.002;18.316;2022-07-29T11:21:56;10.60;;;2.90;;
57341;SDS011;43175;51.002;18.316;2022-07-29T11:24:41;10.70;;;3.00;;
57341;SDS011;43175;51.002;18.316;2022-07-29T11:27:26;9.70;;;3.30;;
57341;SDS011;43175;51.002;18.316;2022-07-29T11:30:15;10.90;;;3.10;;
57341;SDS011;43175;51.002;18.316;2022-07-29T11:32:59;9.40;;;2.90;;
57341;SDS011;43175;51.002;18.316;2022-07-29T11:35:44;9.40;;;3.00;;
57341;SDS011;43175;51.002;18.316;2022-07-29T11:39:25;11.70;;;3.30;;
57341;SDS011;43175;51.002;18.316;2022-07-29T11:47:50;11.50;;;3.30;;
57341;SDS011;43175;51.002;18.316;2022-07-29T11:50:36;10.20;;;3.40;;
57341;SDS011;43175;51.002;18.316;2022-07-29T11:53:21;9.00;;;2.90;;
57341;SDS011;43175;51.002;18.316;2022-07-29T11:56:08;10.20;;;3.20;;
57341;SDS011;43175;51.002;18.316;2022-07-29T11:59:06;9.60;;;3.20;;
57341;SDS011;43175;51.002;18.316;2022-07-29T12:01:56;9.20;;;3.30;;
57341;SDS011;43175;51.002;18.316;2022-07-29T12:07:34;8.50;;;2.90;;
57341;SDS011;43175;51.002;18.316;2022-07-29T12:10:18;8.60;;;3.00;;
57341;SDS011;43175;51.002;18.316;2022-07-29T12:13:02;9.40;;;3.10;;
57341;SDS011;43175;51.002;18.316;2022-07-29T12:15:53;8.10;;;3.00;;
57341;SDS011;43175;51.002;18.316;2022-07-29T12:18:40;10.30;;;2.80;;
57341;SDS011;43175;51.002;18.316;2022-07-29T12:21:25;10.30;;;3.00;;
57341;SDS011;43175;51.002;18.316;2022-07-29T12:24:09;10.70;;;3.20;;
57341;SDS011;43175;51.002;18.316;2022-07-29T12:26:54;10.30;;;3.30;;
57341;SDS011;43175;51.002;18.316;2022-07-29T12:29:40;11.70;;;3.30;;
57341;SDS011;43175;51.002;18.316;2022-07-29T12:32:30;9.00;;;3.30;;
57341;SDS011;43175;51.002;18.316;2022-07-29T12:35:16;10.90;;;3.50;;
57341;SDS011;43175;51.002;18.316;2022-07-29T12:38:05;9.20;;;3.40;;
57341;SDS011;43175;51.002;18.316;2022-07-29T12:40:51;14.80;;;4.30;;
57341;SDS011;43175;51.002;18.316;2022-07-29T12:43:36;12.10;;;3.80;;
57341;SDS011;43175;51.002;18.316;2022-07-29T12:46:20;10.40;;;3.30;;
57341;SDS011;43175;51.002;18.316;2022-07-29T12:49:04;10.30;;;3.20;;
57341;SDS011;43175;51.002;18.316;2022-07-29T12:51:48;11.50;;;3.60;;
57341;SDS011;43175;51.002;18.316;2022-07-29T12:54:32;11.30;;;3.60;;
57341;SDS011;43175;51.002;18.316;2022-07-29T12:57:16;11.00;;;3.20;;
57341;SDS011;43175;51.002;18.316;2022-07-29T13:00:07;13.20;;;3.40;;
57341;SDS011;43175;51.002;18.316;2022-07-29T13:02:55;11.90;;;3.40;;
57341;SDS011;43175;51.002;18.316;2022-07-29T13:05:41;11.50;;;3.70;;
57341;SDS011;43175;51.002;18.316;2022-07-29T13:08:26;9.40;;;3.30;;
57341;SDS011;43175;51.002;18.316;2022-07-29T13:11:26;11.20;;;3.30;;
57341;SDS011;43175;51.002;18.316;2022-07-29T13:14:13;12.60;;;3.70;;
57341;SDS011;43175;51.002;18.316;2022-07-29T13:17:08;13.00;;;3.70;;
57341;SDS011;43175;51.002;18.316;2022-07-29T13:20:06;11.20;;;3.60;;
57341;SDS011;43175;51.002;18.316;2022-07-29T13:23:01;11.60;;;3.30;;
57341;SDS011;43175;51.002;18.316;2022-07-29T13:25:45;11.20;;;3.70;;
57341;SDS011;43175;51.002;18.316;2022-07-29T13:28:29;10.50;;;4.10;;
57341;SDS011;43175;51.002;18.316;2022-07-29T13:31:13;10.30;;;3.70;;
57341;SDS011;43175;51.002;18.316;2022-07-29T13:33:58;13.80;;;4.00;;
57341;SDS011;43175;51.002;18.316;2022-07-29T13:36:42;10.50;;;4.40;;
57341;SDS011;43175;51.002;18.316;2022-07-29T13:39:27;12.60;;;4.10;;
57341;SDS011;43175;51.002;18.316;2022-07-29T13:42:11;10.70;;;3.80;;
57341;SDS011;43175;51.002;18.316;2022-07-29T13:44:58;14.40;;;3.90;;
57341;SDS011;43175;51.002;18.316;2022-07-29T13:47:43;10.70;;;3.90;;
57341;SDS011;43175;51.002;18.316;2022-07-29T13:50:27;9.80;;;3.90;;
57341;SDS011;43175;51.002;18.316;2022-07-29T13:53:11;13.30;;;4.10;;
57341;SDS011;43175;51.002;18.316;2022-07-29T13:55:55;9.30;;;3.90;;
57341;SDS011;43175;51.002;18.316;2022-07-29T13:58:39;9.00;;;3.70;;
57341;SDS011;43175;51.002;18.316;2022-07-29T14:01:23;14.40;;;4.20;;
57341;SDS011;43175;51.002;18.316;2022-07-29T14:04:08;16.30;;;4.10;;
57341;SDS011;43175;51.002;18.316;2022-07-29T14:06:53;10.50;;;3.80;;
57341;SDS011;43175;51.002;18.316;2022-07-29T14:09:37;10.30;;;3.60;;
57341;SDS011;43175;51.002;18.316;2022-07-29T14:12:22;11.10;;;3.50;;
57341;SDS011;43175;51.002;18.316;2022-07-29T14:15:06;10.40;;;3.50;;
57341;SDS011;43175;51.002;18.316;2022-07-29T14:17:51;9.30;;;3.60;;
57341;SDS011;43175;51.002;18.316;2022-07-29T14:20:35;12.00;;;4.10;;
57341;SDS011;43175;51.002;18.316;2022-07-29T14:23:20;13.10;;;3.80;;
57341;SDS011;43175;51.002;18.316;2022-07-29T14:26:04;10.00;;;3.80;;
57341;SDS011;43175;51.002;18.316;2022-07-29T14:28:48;11.60;;;3.50;;
57341;SDS011;43175;51.002;18.316;2022-07-29T14:31:32;11.10;;;3.50;;
57341;SDS011;43175;51.002;18.316;2022-07-29T14:34:17;9.30;;;3.40;;
57341;SDS011;43175;51.002;18.316;2022-07-29T14:37:01;9.20;;;3.40;;
57341;SDS011;43175;51.002;18.316;2022-07-29T14:39:46;13.90;;;3.50;;
57341;SDS011;43175;51.002;18.316;2022-07-29T14:42:30;11.80;;;3.80;;
57341;SDS011;43175;51.002;18.316;2022-07-29T14:45:15;14.00;;;3.70;;
57341;SDS011;43175;51.002;18.316;2022-07-29T14:47:59;11.60;;;3.50;;
57341;SDS011;43175;51.002;18.316;2022-07-29T14:50:44;10.70;;;3.50;;
57341;SDS011;43175;51.002;18.316;2022-07-29T14:53:28;9.80;;;3.70;;
57341;SDS011;43175;51.002;18.316;2022-07-29T14:56:12;11.10;;;3.40;;
57341;SDS011;43175;51.002;18.316;2022-07-29T14:58:56;10.80;;;3.50;;
57341;SDS011;43175;51.002;18.316;2022-07-29T15:01:41;11.30;;;3.70;;
57341;SDS011;43175;51.002;18.316;2022-07-29T15:04:25;11.10;;;3.80;;
57341;SDS011;43175;51.002;18.316;2022-07-29T15:07:09;11.70;;;3.50;;
57341;SDS011;43175;51.002;18.316;2022-07-29T15:09:53;9.90;;;3.40;;
57341;SDS011;43175;51.002;18.316;2022-07-29T15:12:37;12.80;;;3.60;;
57341;SDS011;43175;51.002;18.316;2022-07-29T15:15:21;10.30;;;3.80;;
57341;SDS011;43175;51.002;18.316;2022-07-29T15:18:05;11.90;;;3.70;;
57341;SDS011;43175;51.002;18.316;2022-07-29T15:20:50;12.00;;;3.50;;
57341;SDS011;43175;51.002;18.316;2022-07-29T15:23:34;9.80;;;3.60;;
57341;SDS011;43175;51.002;18.316;2022-07-29T15:26:20;9.40;;;3.60;;
57341;SDS011;43175;51.002;18.316;2022-07-29T15:29:04;9.20;;;3.70;;
57341;SDS011;43175;51.002;18.316;2022-07-29T15:31:48;10.90;;;3.50;;
57341;SDS011;43175;51.002;18.316;2022-07-29T15:34:33;10.00;;;3.60;;
57341;SDS011;43175;51.002;18.316;2022-07-29T15:37:17;14.20;;;4.10;;
57341;SDS011;43175;51.002;18.316;2022-07-29T15:40:01;13.30;;;4.60;;
57341;SDS011;43175;51.002;18.316;2022-07-29T15:42:46;13.40;;;4.60;;
57341;SDS011;43175;51.002;18.316;2022-07-29T15:45:34;13.00;;;4.50;;
57341;SDS011;43175;51.002;18.316;2022-07-29T15:48:22;11.90;;;4.30;;
57341;SDS011;43175;51.002;18.316;2022-07-29T15:51:06;11.70;;;4.40;;
57341;SDS011;43175;51.002;18.316;2022-07-29T15:53:50;11.00;;;4.30;;
57341;SDS011;43175;51.002;18.316;2022-07-29T15:56:34;11.80;;;4.10;;
57341;SDS011;43175;51.002;18.316;2022-07-29T15:59:19;12.40;;;4.10;;
57341;SDS011;43175;51.002;18.316;2022-07-29T16:02:03;9.80;;;4.20;;
57341;SDS011;43175;51.002;18.316;2022-07-29T16:04:48;11.40;;;4.10;;
57341;SDS011;43175;51.002;18.316;2022-07-29T16:07:32;10.20;;;4.50;;
57341;SDS011;43175;51.002;18.316;2022-07-29T16:10:16;11.10;;;4.30;;
57341;SDS011;43175;51.002;18.316;2022-07-29T16:13:00;9.80;;;4.30;;
57341;SDS011;43175;51.002;18.316;2022-07-29T16:15:44;12.70;;;4.30;;
57341;SDS011;43175;51.002;18.316;2022-07-29T16:18:28;12.20;;;4.20;;
57341;SDS011;43175;51.002;18.316;2022-07-29T16:21:13;14.10;;;4.70;;
57341;SDS011;43175;51.002;18.316;2022-07-29T16:23:58;9.90;;;4.70;;
57341;SDS011;43175;51.002;18.316;2022-07-29T16:26:43;10.30;;;4.40;;
57341;SDS011;43175;51.002;18.316;2022-07-29T16:29:27;10.90;;;4.50;;
57341;SDS011;43175;51.002;18.316;2022-07-29T16:32:11;11.20;;;4.90;;
57341;SDS011;43175;51.002;18.316;2022-07-29T16:34:56;10.40;;;4.30;;
57341;SDS011;43175;51.002;18.316;2022-07-29T16:37:41;12.20;;;4.80;;
57341;SDS011;43175;51.002;18.316;2022-07-29T16:40:25;12.80;;;4.30;;
57341;SDS011;43175;51.002;18.316;2022-07-29T16:43:09;12.10;;;4.40;;
57341;SDS011;43175;51.002;18.316;2022-07-29T16:45:53;12.60;;;4.70;;
57341;SDS011;43175;51.002;18.316;2022-07-29T16:48:38;11.80;;;4.80;;
57341;SDS011;43175;51.002;18.316;2022-07-29T16:51:22;10.40;;;4.10;;
57341;SDS011;43175;51.002;18.316;2022-07-29T16:54:06;9.10;;;4.20;;
57341;SDS011;43175;51.002;18.316;2022-07-29T16:56:51;9.30;;;4.20;;
57341;SDS011;43175;51.002;18.316;2022-07-29T16:59:35;9.90;;;4.40;;
57341;SDS011;43175;51.002;18.316;2022-07-29T17:02:19;12.10;;;4.80;;
57341;SDS011;43175;51.002;18.316;2022-07-29T17:05:05;10.30;;;4.90;;
57341;SDS011;43175;51.002;18.316;2022-07-29T17:07:50;10.30;;;4.70;;
57341;SDS011;43175;51.002;18.316;2022-07-29T17:10:34;12.30;;;4.80;;